sensor_id;sensor_type;location;lat;lon;timestamp;P1;durP1;ratioP1;P2;durP2;ratioP2
53927;SDS011;39837;47.630;18.822;2023-02-17T00:02:26;19.92;;;12.00;;
53927;SDS011;39837;47.630;18.822;2023-02-17T00:05:10;15.23;;;11.95;;
53927;SDS011;39837;47.630;18.822;2023-02-17T00:07:54;16.17;;;11.52;;
53927;SDS011;39837;47.630;18.822;2023-02-17T00:10:37;12.60;;;10.50;;
53927;SDS011;39837;47.630;18.822;2023-02-17T00:13:22;22.38;;;13.25;;
53927;SDS011;39837;47.630;18.822;2023-02-17T00:16:28;15.40;;;11.55;;
53927;SDS011;39837;47.630;18.822;2023-02-17T00:19:11;9.98;;;7.45;;
53927;SDS011;39837;47.630;18.822;2023-02-17T00:22:07;13.55;;;10.00;;
53927;SDS011;39837;47.630;18.822;2023-02-17T00:24:51;19.83;;;8.90;;
53927;SDS011;39837;47.630;18.822;2023-02-17T00:27:35;7.47;;;6.70;;
53927;SDS011;39837;47.630;18.822;2023-02-17T00:30:19;6.82;;;6.13;;
53927;SDS011;39837;47.630;18.822;2023-02-17T00:33:03;7.72;;;7.00;;
53927;SDS011;39837;47.630;18.822;2023-02-17T00:35:48;9.75;;;7.43;;
53927;SDS011;39837;47.630;18.822;2023-02-17T00:38:32;11.65;;;8.25;;
53927;SDS011;39837;47.630;18.822;2023-02-17T00:41:16;18.10;;;10.82;;
53927;SDS011;39837;47.630;18.822;2023-02-17T00:44:01;11.07;;;8.90;;
53927;SDS011;39837;47.630;18.822;2023-02-17T00:46:45;8.25;;;6.72;;
53927;SDS011;39837;47.630;18.822;2023-02-17T00:49:29;18.17;;;9.23;;
53927;SDS011;39837;47.630;18.822;2023-02-17T00:52:13;8.93;;;7.72;;
53927;SDS011;39837;47.630;18.822;2023-02-17T00:54:57;10.88;;;7.93;;
53927;SDS011;39837;47.630;18.822;2023-02-17T00:57:41;15.23;;;5.95;;
53927;SDS011;39837;47.630;18.822;2023-02-17T01:00:25;6.57;;;6.05;;
53927;SDS011;39837;47.630;18.822;2023-02-17T01:03:09;9.02;;;7.40;;
53927;SDS011;39837;47.630;18.822;2023-02-17T01:05:53;14.38;;;8.98;;
53927;SDS011;39837;47.630;18.822;2023-02-17T01:08:37;14.77;;;9.18;;
53927;SDS011;39837;47.630;18.822;2023-02-17T01:11:23;11.43;;;6.68;;
53927;SDS011;39837;47.630;18.822;2023-02-17T01:14:09;9.70;;;6.90;;
53927;SDS011;39837;47.630;18.822;2023-02-17T01:16:55;13.23;;;7.07;;
53927;SDS011;39837;47.630;18.822;2023-02-17T01:19:39;12.73;;;8.90;;
53927;SDS011;39837;47.630;18.822;2023-02-17T01:22:23;16.98;;;7.63;;
53927;SDS011;39837;47.630;18.822;2023-02-17T01:25:07;13.07;;;7.22;;
53927;SDS011;39837;47.630;18.822;2023-02-17T01:27:51;7.22;;;5.93;;
53927;SDS011;39837;47.630;18.822;2023-02-17T01:30:35;14.80;;;6.53;;
53927;SDS011;39837;47.630;18.822;2023-02-17T01:33:19;7.95;;;7.22;;
53927;SDS011;39837;47.630;18.822;2023-02-17T01:36:04;5.70;;;5.18;;
53927;SDS011;39837;47.630;18.822;2023-02-17T01:38:49;5.30;;;4.82;;
53927;SDS011;39837;47.630;18.822;2023-02-17T01:41:34;14.73;;;5.57;;
53927;SDS011;39837;47.630;18.822;2023-02-17T01:44:20;8.43;;;4.75;;
53927;SDS011;39837;47.630;18.822;2023-02-17T01:47:10;9.63;;;5.38;;
53927;SDS011;39837;47.630;18.822;2023-02-17T01:49:55;7.05;;;6.45;;
53927;SDS011;39837;47.630;18.822;2023-02-17T01:52:39;6.93;;;5.53;;
53927;SDS011;39837;47.630;18.822;2023-02-17T01:55:24;9.73;;;5.35;;
53927;SDS011;39837;47.630;18.822;2023-02-17T01:58:10;5.55;;;5.10;;
53927;SDS011;39837;47.630;18.822;2023-02-17T02:00:54;8.75;;;6.68;;
53927;SDS011;39837;47.630;18.822;2023-02-17T02:03:41;5.93;;;4.15;;
53927;SDS011;39837;47.630;18.822;2023-02-17T02:06:27;6.38;;;4.95;;
53927;SDS011;39837;47.630;18.822;2023-02-17T02:09:21;14.43;;;7.63;;
53927;SDS011;39837;47.630;18.822;2023-02-17T02:12:21;5.32;;;3.42;;
53927;SDS011;39837;47.630;18.822;2023-02-17T02:15:08;7.97;;;5.00;;
53927;SDS011;39837;47.630;18.822;2023-02-17T02:32:41;11.07;;;6.60;;
53927;SDS011;39837;47.630;18.822;2023-02-17T02:35:50;12.88;;;7.28;;
53927;SDS011;39837;47.630;18.822;2023-02-17T02:41:52;7.07;;;5.35;;
53927;SDS011;39837;47.630;18.822;2023-02-17T02:44:37;13.57;;;6.20;;
53927;SDS011;39837;47.630;18.822;2023-02-17T02:59:18;9.68;;;6.60;;
53927;SDS011;39837;47.630;18.822;2023-02-17T03:02:07;23.52;;;7.95;;
53927;SDS011;39837;47.630;18.822;2023-02-17T03:08:07;12.70;;;9.85;;
53927;SDS011;39837;47.630;18.822;2023-02-17T03:10:52;12.10;;;8.38;;
53927;SDS011;39837;47.630;18.822;2023-02-17T03:13:36;16.88;;;12.20;;
53927;SDS011;39837;47.630;18.822;2023-02-17T03:16:22;9.07;;;7.15;;
53927;SDS011;39837;47.630;18.822;2023-02-17T03:19:06;10.57;;;6.95;;
53927;SDS011;39837;47.630;18.822;2023-02-17T03:21:54;6.70;;;5.57;;
53927;SDS011;39837;47.630;18.822;2023-02-17T03:24:40;7.50;;;4.78;;
53927;SDS011;39837;47.630;18.822;2023-02-17T03:27:24;10.07;;;6.97;;
53927;SDS011;39837;47.630;18.822;2023-02-17T03:30:08;9.25;;;5.75;;
53927;SDS011;39837;47.630;18.822;2023-02-17T03:32:53;9.40;;;6.88;;
53927;SDS011;39837;47.630;18.822;2023-02-17T03:35:37;10.70;;;3.65;;
53927;SDS011;39837;47.630;18.822;2023-02-17T03:38:20;7.22;;;6.03;;
53927;SDS011;39837;47.630;18.822;2023-02-17T03:41:05;7.65;;;6.80;;
53927;SDS011;39837;47.630;18.822;2023-02-17T03:43:49;16.02;;;8.15;;
53927;SDS011;39837;47.630;18.822;2023-02-17T03:46:33;7.88;;;5.00;;
53927;SDS011;39837;47.630;18.822;2023-02-17T03:49:17;5.53;;;4.80;;
53927;SDS011;39837;47.630;18.822;2023-02-17T03:52:02;6.35;;;5.78;;
53927;SDS011;39837;47.630;18.822;2023-02-17T03:54:46;9.10;;;7.20;;
53927;SDS011;39837;47.630;18.822;2023-02-17T03:57:30;10.20;;;5.47;;
53927;SDS011;39837;47.630;18.822;2023-02-17T04:00:15;8.48;;;6.70;;
53927;SDS011;39837;47.630;18.822;2023-02-17T04:02:59;8.20;;;7.47;;
53927;SDS011;39837;47.630;18.822;2023-02-17T04:05:43;8.27;;;7.45;;
53927;SDS011;39837;47.630;18.822;2023-02-17T04:08:28;8.85;;;4.07;;
53927;SDS011;39837;47.630;18.822;2023-02-17T04:11:12;9.80;;;7.97;;
53927;SDS011;39837;47.630;18.822;2023-02-17T04:13:56;11.65;;;8.13;;
53927;SDS011;39837;47.630;18.822;2023-02-17T04:16:40;12.75;;;7.57;;
53927;SDS011;39837;47.630;18.822;2023-02-17T04:19:25;13.05;;;10.05;;
53927;SDS011;39837;47.630;18.822;2023-02-17T04:22:09;12.80;;;8.80;;
53927;SDS011;39837;47.630;18.822;2023-02-17T04:24:53;7.15;;;6.40;;
53927;SDS011;39837;47.630;18.822;2023-02-17T04:27:37;11.48;;;6.75;;
53927;SDS011;39837;47.630;18.822;2023-02-17T04:30:21;12.65;;;8.05;;
53927;SDS011;39837;47.630;18.822;2023-02-17T04:33:05;17.23;;;11.57;;
53927;SDS011;39837;47.630;18.822;2023-02-17T04:35:49;16.23;;;10.75;;
53927;SDS011;39837;47.630;18.822;2023-02-17T04:38:33;9.88;;;6.57;;
53927;SDS011;39837;47.630;18.822;2023-02-17T04:41:17;11.45;;;8.38;;
53927;SDS011;39837;47.630;18.822;2023-02-17T04:44:01;9.07;;;6.35;;
53927;SDS011;39837;47.630;18.822;2023-02-17T04:46:46;7.80;;;6.55;;
53927;SDS011;39837;47.630;18.822;2023-02-17T04:49:30;8.77;;;7.53;;
53927;SDS011;39837;47.630;18.822;2023-02-17T04:52:14;32.35;;;10.82;;
53927;SDS011;39837;47.630;18.822;2023-02-17T04:54:58;11.85;;;8.05;;
53927;SDS011;39837;47.630;18.822;2023-02-17T04:57:42;15.18;;;10.20;;
53927;SDS011;39837;47.630;18.822;2023-02-17T05:00:26;24.65;;;8.73;;
53927;SDS011;39837;47.630;18.822;2023-02-17T05:03:10;12.05;;;7.13;;
53927;SDS011;39837;47.630;18.822;2023-02-17T05:05:54;17.05;;;10.02;;
53927;SDS011;39837;47.630;18.822;2023-02-17T05:08:38;14.77;;;9.85;;
53927;SDS011;39837;47.630;18.822;2023-02-17T05:11:22;24.38;;;10.65;;
53927;SDS011;39837;47.630;18.822;2023-02-17T05:14:06;8.35;;;6.95;;
53927;SDS011;39837;47.630;18.822;2023-02-17T05:16:49;17.95;;;11.75;;
53927;SDS011;39837;47.630;18.822;2023-02-17T05:19:33;19.52;;;9.00;;
53927;SDS011;39837;47.630;18.822;2023-02-17T05:22:17;11.90;;;9.52;;
53927;SDS011;39837;47.630;18.822;2023-02-17T05:25:01;12.65;;;10.85;;
53927;SDS011;39837;47.630;18.822;2023-02-17T05:27:46;20.73;;;9.63;;
53927;SDS011;39837;47.630;18.822;2023-02-17T05:30:30;12.40;;;8.77;;
53927;SDS011;39837;47.630;18.822;2023-02-17T05:33:14;25.02;;;13.45;;
53927;SDS011;39837;47.630;18.822;2023-02-17T05:36:02;20.65;;;12.40;;
53927;SDS011;39837;47.630;18.822;2023-02-17T05:38:50;12.05;;;9.90;;
53927;SDS011;39837;47.630;18.822;2023-02-17T05:41:35;8.40;;;7.57;;
53927;SDS011;39837;47.630;18.822;2023-02-17T05:44:19;22.73;;;14.45;;
53927;SDS011;39837;47.630;18.822;2023-02-17T05:47:03;23.88;;;14.57;;
53927;SDS011;39837;47.630;18.822;2023-02-17T05:49:47;23.48;;;11.57;;
53927;SDS011;39837;47.630;18.822;2023-02-17T05:52:31;10.88;;;9.00;;
53927;SDS011;39837;47.630;18.822;2023-02-17T05:55:15;21.63;;;15.55;;
53927;SDS011;39837;47.630;18.822;2023-02-17T05:58:00;16.63;;;10.93;;
53927;SDS011;39837;47.630;18.822;2023-02-17T06:00:44;20.90;;;12.98;;
53927;SDS011;39837;47.630;18.822;2023-02-17T06:03:29;24.42;;;12.50;;
53927;SDS011;39837;47.630;18.822;2023-02-17T06:06:13;13.82;;;11.65;;
53927;SDS011;39837;47.630;18.822;2023-02-17T06:08:57;14.52;;;9.55;;
53927;SDS011;39837;47.630;18.822;2023-02-17T06:11:41;22.42;;;13.55;;
53927;SDS011;39837;47.630;18.822;2023-02-17T06:14:25;11.27;;;9.48;;
53927;SDS011;39837;47.630;18.822;2023-02-17T06:17:09;15.07;;;12.77;;
53927;SDS011;39837;47.630;18.822;2023-02-17T06:19:53;22.67;;;11.95;;
53927;SDS011;39837;47.630;18.822;2023-02-17T06:22:37;13.40;;;10.23;;
53927;SDS011;39837;47.630;18.822;2023-02-17T06:25:21;14.75;;;10.30;;
53927;SDS011;39837;47.630;18.822;2023-02-17T06:28:05;19.95;;;12.80;;
53927;SDS011;39837;47.630;18.822;2023-02-17T06:30:48;36.15;;;19.92;;
53927;SDS011;39837;47.630;18.822;2023-02-17T06:33:32;30.70;;;18.70;;
53927;SDS011;39837;47.630;18.822;2023-02-17T06:36:16;40.13;;;22.33;;
53927;SDS011;39837;47.630;18.822;2023-02-17T06:39:00;31.42;;;19.95;;
53927;SDS011;39837;47.630;18.822;2023-02-17T06:41:44;41.70;;;22.70;;
53927;SDS011;39837;47.630;18.822;2023-02-17T06:44:28;59.33;;;25.35;;
53927;SDS011;39837;47.630;18.822;2023-02-17T06:47:12;32.60;;;21.30;;
53927;SDS011;39837;47.630;18.822;2023-02-17T06:49:56;43.40;;;26.50;;
53927;SDS011;39837;47.630;18.822;2023-02-17T06:52:40;42.45;;;24.83;;
53927;SDS011;39837;47.630;18.822;2023-02-17T06:55:24;48.80;;;22.88;;
53927;SDS011;39837;47.630;18.822;2023-02-17T06:58:08;43.25;;;22.55;;
53927;SDS011;39837;47.630;18.822;2023-02-17T07:00:52;40.80;;;23.15;;
53927;SDS011;39837;47.630;18.822;2023-02-17T07:03:36;45.83;;;26.40;;
53927;SDS011;39837;47.630;18.822;2023-02-17T07:06:20;38.72;;;23.52;;
53927;SDS011;39837;47.630;18.822;2023-02-17T07:09:06;44.50;;;23.98;;
53927;SDS011;39837;47.630;18.822;2023-02-17T07:11:50;54.13;;;29.08;;
53927;SDS011;39837;47.630;18.822;2023-02-17T07:14:34;50.63;;;27.35;;
53927;SDS011;39837;47.630;18.822;2023-02-17T07:17:18;46.85;;;25.83;;
53927;SDS011;39837;47.630;18.822;2023-02-17T07:20:02;58.63;;;34.08;;
53927;SDS011;39837;47.630;18.822;2023-02-17T07:22:46;50.53;;;30.45;;
53927;SDS011;39837;47.630;18.822;2023-02-17T07:25:30;49.10;;;29.25;;
53927;SDS011;39837;47.630;18.822;2023-02-17T07:28:14;60.90;;;31.65;;
53927;SDS011;39837;47.630;18.822;2023-02-17T07:31:09;52.72;;;27.95;;
53927;SDS011;39837;47.630;18.822;2023-02-17T07:33:54;50.20;;;29.00;;
53927;SDS011;39837;47.630;18.822;2023-02-17T07:36:38;61.05;;;31.00;;
53927;SDS011;39837;47.630;18.822;2023-02-17T07:39:22;58.80;;;25.33;;
53927;SDS011;39837;47.630;18.822;2023-02-17T07:42:06;52.88;;;29.67;;
53927;SDS011;39837;47.630;18.822;2023-02-17T07:44:52;43.88;;;25.40;;
53927;SDS011;39837;47.630;18.822;2023-02-17T07:47:36;45.00;;;25.05;;
53927;SDS011;39837;47.630;18.822;2023-02-17T07:50:20;43.85;;;23.40;;
53927;SDS011;39837;47.630;18.822;2023-02-17T07:53:04;40.67;;;24.50;;
53927;SDS011;39837;47.630;18.822;2023-02-17T07:55:48;52.47;;;26.48;;
53927;SDS011;39837;47.630;18.822;2023-02-17T07:58:33;42.40;;;22.80;;
53927;SDS011;39837;47.630;18.822;2023-02-17T08:01:19;41.88;;;23.02;;
53927;SDS011;39837;47.630;18.822;2023-02-17T08:04:04;49.95;;;27.67;;
53927;SDS011;39837;47.630;18.822;2023-02-17T08:06:48;36.38;;;21.70;;
53927;SDS011;39837;47.630;18.822;2023-02-17T08:09:32;41.78;;;24.70;;
53927;SDS011;39837;47.630;18.822;2023-02-17T08:12:35;36.75;;;22.05;;
53927;SDS011;39837;47.630;18.822;2023-02-17T08:15:51;43.75;;;22.10;;
53927;SDS011;39837;47.630;18.822;2023-02-17T08:18:35;29.17;;;19.70;;
53927;SDS011;39837;47.630;18.822;2023-02-17T08:21:23;34.35;;;18.98;;
53927;SDS011;39837;47.630;18.822;2023-02-17T08:24:08;27.48;;;19.02;;
53927;SDS011;39837;47.630;18.822;2023-02-17T08:26:52;30.90;;;18.08;;
53927;SDS011;39837;47.630;18.822;2023-02-17T08:29:36;31.38;;;19.90;;
53927;SDS011;39837;47.630;18.822;2023-02-17T08:32:20;55.40;;;28.60;;
53927;SDS011;39837;47.630;18.822;2023-02-17T08:35:05;26.63;;;18.20;;
53927;SDS011;39837;47.630;18.822;2023-02-17T08:37:49;27.67;;;17.50;;
53927;SDS011;39837;47.630;18.822;2023-02-17T08:40:33;23.63;;;17.67;;
53927;SDS011;39837;47.630;18.822;2023-02-17T08:43:17;33.97;;;18.05;;
53927;SDS011;39837;47.630;18.822;2023-02-17T08:46:01;36.15;;;18.48;;
53927;SDS011;39837;47.630;18.822;2023-02-17T08:48:50;30.20;;;16.67;;
53927;SDS011;39837;47.630;18.822;2023-02-17T08:51:35;27.40;;;16.65;;
53927;SDS011;39837;47.630;18.822;2023-02-17T08:54:19;22.35;;;17.08;;
53927;SDS011;39837;47.630;18.822;2023-02-17T08:57:03;28.30;;;18.13;;
53927;SDS011;39837;47.630;18.822;2023-02-17T08:59:48;27.02;;;16.25;;
53927;SDS011;39837;47.630;18.822;2023-02-17T09:02:32;27.45;;;15.90;;
53927;SDS011;39837;47.630;18.822;2023-02-17T09:05:16;22.92;;;16.35;;
53927;SDS011;39837;47.630;18.822;2023-02-17T09:08:01;27.02;;;18.85;;
53927;SDS011;39837;47.630;18.822;2023-02-17T09:10:45;34.20;;;17.02;;
53927;SDS011;39837;47.630;18.822;2023-02-17T09:13:29;28.10;;;16.85;;
53927;SDS011;39837;47.630;18.822;2023-02-17T09:16:13;30.50;;;17.40;;
53927;SDS011;39837;47.630;18.822;2023-02-17T09:18:57;26.77;;;16.63;;
53927;SDS011;39837;47.630;18.822;2023-02-17T09:21:41;20.15;;;14.13;;
53927;SDS011;39837;47.630;18.822;2023-02-17T09:24:25;22.33;;;14.77;;
53927;SDS011;39837;47.630;18.822;2023-02-17T09:27:09;29.27;;;16.85;;
53927;SDS011;39837;47.630;18.822;2023-02-17T09:29:53;37.95;;;14.07;;
53927;SDS011;39837;47.630;18.822;2023-02-17T09:32:39;25.60;;;16.00;;
53927;SDS011;39837;47.630;18.822;2023-02-17T09:35:24;29.42;;;17.35;;
53927;SDS011;39837;47.630;18.822;2023-02-17T09:38:08;25.25;;;15.38;;
53927;SDS011;39837;47.630;18.822;2023-02-17T09:40:52;19.00;;;14.40;;
53927;SDS011;39837;47.630;18.822;2023-02-17T09:43:37;21.95;;;16.08;;
53927;SDS011;39837;47.630;18.822;2023-02-17T09:46:32;33.28;;;14.70;;
53927;SDS011;39837;47.630;18.822;2023-02-17T09:49:21;21.63;;;14.18;;
53927;SDS011;39837;47.630;18.822;2023-02-17T09:55:24;27.48;;;15.65;;
53927;SDS011;39837;47.630;18.822;2023-02-17T10:01:27;16.08;;;11.65;;
53927;SDS011;39837;47.630;18.822;2023-02-17T10:04:15;28.45;;;11.32;;
53927;SDS011;39837;47.630;18.822;2023-02-17T10:07:19;12.57;;;8.80;;
53927;SDS011;39837;47.630;18.822;2023-02-17T10:15:39;7.88;;;7.00;;
53927;SDS011;39837;47.630;18.822;2023-02-17T10:18:36;12.95;;;6.95;;
53927;SDS011;39837;47.630;18.822;2023-02-17T10:21:27;10.60;;;7.85;;
53927;SDS011;39837;47.630;18.822;2023-02-17T10:24:14;4.53;;;4.20;;
53927;SDS011;39837;47.630;18.822;2023-02-17T10:35:54;13.05;;;4.72;;
53927;SDS011;39837;47.630;18.822;2023-02-17T10:38:51;4.88;;;4.53;;
53927;SDS011;39837;47.630;18.822;2023-02-17T10:41:37;5.75;;;4.65;;
53927;SDS011;39837;47.630;18.822;2023-02-17T10:44:22;9.75;;;5.25;;
53927;SDS011;39837;47.630;18.822;2023-02-17T10:47:08;4.95;;;4.07;;
53927;SDS011;39837;47.630;18.822;2023-02-17T10:49:54;10.77;;;5.28;;
53927;SDS011;39837;47.630;18.822;2023-02-17T10:52:39;6.22;;;5.10;;
53927;SDS011;39837;47.630;18.822;2023-02-17T10:55:37;6.07;;;5.07;;
53927;SDS011;39837;47.630;18.822;2023-02-17T10:58:26;3.67;;;3.47;;
53927;SDS011;39837;47.630;18.822;2023-02-17T11:01:13;3.25;;;3.05;;
53927;SDS011;39837;47.630;18.822;2023-02-17T11:03:58;8.70;;;3.88;;
53927;SDS011;39837;47.630;18.822;2023-02-17T11:06:52;3.72;;;3.40;;
53927;SDS011;39837;47.630;18.822;2023-02-17T11:09:48;5.05;;;3.75;;
53927;SDS011;39837;47.630;18.822;2023-02-17T11:12:38;5.18;;;4.60;;
53927;SDS011;39837;47.630;18.822;2023-02-17T11:15:30;4.15;;;3.60;;
53927;SDS011;39837;47.630;18.822;2023-02-17T11:18:19;4.57;;;4.22;;
53927;SDS011;39837;47.630;18.822;2023-02-17T11:21:07;5.22;;;4.75;;
53927;SDS011;39837;47.630;18.822;2023-02-17T11:24:10;4.30;;;4.03;;
53927;SDS011;39837;47.630;18.822;2023-02-17T11:27:07;5.15;;;4.65;;
53927;SDS011;39837;47.630;18.822;2023-02-17T11:29:52;3.97;;;3.55;;
53927;SDS011;39837;47.630;18.822;2023-02-17T11:32:38;4.50;;;4.10;;
53927;SDS011;39837;47.630;18.822;2023-02-17T11:35:26;5.15;;;4.78;;
53927;SDS011;39837;47.630;18.822;2023-02-17T11:38:32;5.70;;;4.95;;
53927;SDS011;39837;47.630;18.822;2023-02-17T11:41:16;5.55;;;4.47;;
53927;SDS011;39837;47.630;18.822;2023-02-17T11:44:00;3.70;;;3.47;;
53927;SDS011;39837;47.630;18.822;2023-02-17T11:58:17;9.73;;;6.03;;
53927;SDS011;39837;47.630;18.822;2023-02-17T12:04:34;5.50;;;4.70;;
53927;SDS011;39837;47.630;18.822;2023-02-17T12:10:18;8.70;;;6.55;;
53927;SDS011;39837;47.630;18.822;2023-02-17T12:16:44;10.48;;;6.13;;
53927;SDS011;39837;47.630;18.822;2023-02-17T12:34:38;13.73;;;9.50;;
53927;SDS011;39837;47.630;18.822;2023-02-17T12:37:26;13.80;;;8.57;;
53927;SDS011;39837;47.630;18.822;2023-02-17T12:40:15;14.48;;;8.25;;
53927;SDS011;39837;47.630;18.822;2023-02-17T12:46:09;10.48;;;8.65;;
53927;SDS011;39837;47.630;18.822;2023-02-17T12:48:59;16.27;;;8.48;;
53927;SDS011;39837;47.630;18.822;2023-02-17T12:51:48;14.63;;;8.35;;
53927;SDS011;39837;47.630;18.822;2023-02-17T12:54:39;9.75;;;8.48;;
53927;SDS011;39837;47.630;18.822;2023-02-17T13:00:33;12.00;;;6.80;;
53927;SDS011;39837;47.630;18.822;2023-02-17T13:03:40;15.20;;;9.13;;
53927;SDS011;39837;47.630;18.822;2023-02-17T13:06:35;18.85;;;9.80;;
53927;SDS011;39837;47.630;18.822;2023-02-17T13:14:59;16.08;;;11.68;;
53927;SDS011;39837;47.630;18.822;2023-02-17T13:17:52;21.83;;;13.77;;
53927;SDS011;39837;47.630;18.822;2023-02-17T13:23:41;23.38;;;13.40;;
53927;SDS011;39837;47.630;18.822;2023-02-17T13:32:10;27.05;;;16.92;;
53927;SDS011;39837;47.630;18.822;2023-02-17T13:34:59;42.95;;;17.42;;
53927;SDS011;39837;47.630;18.822;2023-02-17T13:37:50;30.17;;;18.38;;
53927;SDS011;39837;47.630;18.822;2023-02-17T13:40:36;33.40;;;17.52;;
53927;SDS011;39837;47.630;18.822;2023-02-17T13:43:21;32.42;;;17.65;;
53927;SDS011;39837;47.630;18.822;2023-02-17T13:46:08;29.90;;;17.15;;
53927;SDS011;39837;47.630;18.822;2023-02-17T13:49:03;30.15;;;17.48;;
53927;SDS011;39837;47.630;18.822;2023-02-17T13:51:48;22.85;;;14.23;;
53927;SDS011;39837;47.630;18.822;2023-02-17T13:54:32;25.60;;;14.98;;
53927;SDS011;39837;47.630;18.822;2023-02-17T13:57:29;36.85;;;21.60;;
53927;SDS011;39837;47.630;18.822;2023-02-17T14:03:11;33.45;;;15.23;;
53927;SDS011;39837;47.630;18.822;2023-02-17T14:06:09;32.90;;;15.35;;
53927;SDS011;39837;47.630;18.822;2023-02-17T14:08:56;24.52;;;16.85;;
53927;SDS011;39837;47.630;18.822;2023-02-17T14:11:40;24.75;;;14.52;;
53927;SDS011;39837;47.630;18.822;2023-02-17T14:14:27;39.65;;;16.38;;
53927;SDS011;39837;47.630;18.822;2023-02-17T14:17:24;31.88;;;17.33;;
53927;SDS011;39837;47.630;18.822;2023-02-17T14:20:24;24.05;;;14.30;;
53927;SDS011;39837;47.630;18.822;2023-02-17T14:23:16;33.80;;;14.60;;
53927;SDS011;39837;47.630;18.822;2023-02-17T14:26:07;31.42;;;17.08;;
53927;SDS011;39837;47.630;18.822;2023-02-17T14:28:58;21.03;;;13.97;;
53927;SDS011;39837;47.630;18.822;2023-02-17T14:31:49;46.33;;;21.48;;
53927;SDS011;39837;47.630;18.822;2023-02-17T14:34:34;28.23;;;17.23;;
53927;SDS011;39837;47.630;18.822;2023-02-17T14:37:22;22.35;;;14.50;;
53927;SDS011;39837;47.630;18.822;2023-02-17T14:40:20;22.15;;;14.90;;
53927;SDS011;39837;47.630;18.822;2023-02-17T14:43:05;34.65;;;16.98;;
53927;SDS011;39837;47.630;18.822;2023-02-17T14:45:50;40.97;;;20.08;;
53927;SDS011;39837;47.630;18.822;2023-02-17T14:48:34;49.85;;;24.80;;
53927;SDS011;39837;47.630;18.822;2023-02-17T14:51:19;49.20;;;25.13;;
53927;SDS011;39837;47.630;18.822;2023-02-17T14:54:10;44.78;;;22.55;;
53927;SDS011;39837;47.630;18.822;2023-02-17T14:57:06;46.90;;;22.15;;
53927;SDS011;39837;47.630;18.822;2023-02-17T14:59:54;31.20;;;18.15;;
53927;SDS011;39837;47.630;18.822;2023-02-17T15:02:40;34.53;;;19.20;;
53927;SDS011;39837;47.630;18.822;2023-02-17T15:05:24;33.22;;;19.75;;
53927;SDS011;39837;47.630;18.822;2023-02-17T15:08:12;30.85;;;16.75;;
53927;SDS011;39837;47.630;18.822;2023-02-17T15:10:58;30.63;;;16.42;;
53927;SDS011;39837;47.630;18.822;2023-02-17T15:13:42;37.47;;;17.55;;
53927;SDS011;39837;47.630;18.822;2023-02-17T15:16:26;35.40;;;17.95;;
53927;SDS011;39837;47.630;18.822;2023-02-17T15:19:11;37.53;;;18.40;;
53927;SDS011;39837;47.630;18.822;2023-02-17T15:21:56;23.48;;;16.98;;
53927;SDS011;39837;47.630;18.822;2023-02-17T15:24:44;48.35;;;18.83;;
53927;SDS011;39837;47.630;18.822;2023-02-17T15:27:27;33.97;;;18.38;;
53927;SDS011;39837;47.630;18.822;2023-02-17T15:30:13;33.95;;;19.20;;
53927;SDS011;39837;47.630;18.822;2023-02-17T15:33:00;33.53;;;17.17;;
53927;SDS011;39837;47.630;18.822;2023-02-17T15:35:44;25.35;;;16.55;;
53927;SDS011;39837;47.630;18.822;2023-02-17T15:38:28;34.80;;;20.05;;
53927;SDS011;39837;47.630;18.822;2023-02-17T15:41:15;34.75;;;19.08;;
53927;SDS011;39837;47.630;18.822;2023-02-17T15:44:01;36.95;;;20.33;;
53927;SDS011;39837;47.630;18.822;2023-02-17T15:46:51;34.30;;;18.20;;
53927;SDS011;39837;47.630;18.822;2023-02-17T15:49:37;27.63;;;18.15;;
53927;SDS011;39837;47.630;18.822;2023-02-17T15:52:21;24.85;;;17.17;;
53927;SDS011;39837;47.630;18.822;2023-02-17T15:55:06;37.95;;;20.55;;
53927;SDS011;39837;47.630;18.822;2023-02-17T15:57:51;40.45;;;21.17;;
53927;SDS011;39837;47.630;18.822;2023-02-17T16:00:37;42.83;;;22.75;;
53927;SDS011;39837;47.630;18.822;2023-02-17T16:03:23;45.33;;;24.60;;
53927;SDS011;39837;47.630;18.822;2023-02-17T16:06:06;64.22;;;33.88;;
53927;SDS011;39837;47.630;18.822;2023-02-17T16:08:52;71.78;;;36.78;;
53927;SDS011;39837;47.630;18.822;2023-02-17T16:11:40;51.35;;;28.40;;
53927;SDS011;39837;47.630;18.822;2023-02-17T16:14:34;57.35;;;30.67;;
53927;SDS011;39837;47.630;18.822;2023-02-17T16:17:19;56.35;;;30.63;;
53927;SDS011;39837;47.630;18.822;2023-02-17T16:20:04;53.38;;;31.02;;
53927;SDS011;39837;47.630;18.822;2023-02-17T16:22:50;56.78;;;31.05;;
53927;SDS011;39837;47.630;18.822;2023-02-17T16:25:36;78.43;;;33.33;;
53927;SDS011;39837;47.630;18.822;2023-02-17T16:28:20;66.18;;;34.33;;
53927;SDS011;39837;47.630;18.822;2023-02-17T16:31:08;80.85;;;36.55;;
53927;SDS011;39837;47.630;18.822;2023-02-17T16:33:53;76.38;;;37.05;;
53927;SDS011;39837;47.630;18.822;2023-02-17T16:36:43;70.32;;;34.65;;
53927;SDS011;39837;47.630;18.822;2023-02-17T16:39:27;71.47;;;35.55;;
53927;SDS011;39837;47.630;18.822;2023-02-17T16:42:11;56.15;;;30.63;;
53927;SDS011;39837;47.630;18.822;2023-02-17T16:44:58;68.25;;;31.50;;
53927;SDS011;39837;47.630;18.822;2023-02-17T16:47:43;76.15;;;30.38;;
53927;SDS011;39837;47.630;18.822;2023-02-17T16:50:32;64.30;;;34.13;;
53927;SDS011;39837;47.630;18.822;2023-02-17T16:53:17;59.22;;;30.80;;
53927;SDS011;39837;47.630;18.822;2023-02-17T16:56:05;52.63;;;27.15;;
53927;SDS011;39837;47.630;18.822;2023-02-17T17:01:44;49.65;;;25.92;;
53927;SDS011;39837;47.630;18.822;2023-02-17T17:04:29;56.33;;;26.65;;
53927;SDS011;39837;47.630;18.822;2023-02-17T17:07:13;39.75;;;22.27;;
53927;SDS011;39837;47.630;18.822;2023-02-17T17:09:58;52.90;;;28.08;;
53927;SDS011;39837;47.630;18.822;2023-02-17T17:12:43;68.15;;;34.17;;
53927;SDS011;39837;47.630;18.822;2023-02-17T17:15:28;72.15;;;38.50;;
53927;SDS011;39837;47.630;18.822;2023-02-17T17:18:21;97.57;;;47.53;;
53927;SDS011;39837;47.630;18.822;2023-02-17T17:21:07;85.82;;;41.53;;
53927;SDS011;39837;47.630;18.822;2023-02-17T17:23:54;65.47;;;37.40;;
53927;SDS011;39837;47.630;18.822;2023-02-17T17:26:39;76.32;;;35.17;;
53927;SDS011;39837;47.630;18.822;2023-02-17T17:29:27;72.10;;;36.42;;
53927;SDS011;39837;47.630;18.822;2023-02-17T17:32:11;69.75;;;37.10;;
53927;SDS011;39837;47.630;18.822;2023-02-17T17:34:56;58.85;;;33.63;;
53927;SDS011;39837;47.630;18.822;2023-02-17T17:37:41;65.00;;;35.40;;
53927;SDS011;39837;47.630;18.822;2023-02-17T17:40:30;72.75;;;34.75;;
53927;SDS011;39837;47.630;18.822;2023-02-17T17:43:16;88.20;;;36.30;;
53927;SDS011;39837;47.630;18.822;2023-02-17T17:46:24;81.85;;;39.85;;
53927;SDS011;39837;47.630;18.822;2023-02-17T17:49:12;71.60;;;39.95;;
53927;SDS011;39837;47.630;18.822;2023-02-17T17:51:57;83.15;;;41.15;;
53927;SDS011;39837;47.630;18.822;2023-02-17T17:54:41;87.63;;;45.85;;
53927;SDS011;39837;47.630;18.822;2023-02-17T17:57:25;92.47;;;49.92;;
53927;SDS011;39837;47.630;18.822;2023-02-17T18:00:11;111.93;;;56.20;;
53927;SDS011;39837;47.630;18.822;2023-02-17T18:02:58;92.18;;;45.50;;
53927;SDS011;39837;47.630;18.822;2023-02-17T18:05:41;100.95;;;58.72;;